sensor_id;sensor_type;location;lat;lon;timestamp;pressure;altitude;pressure_sealevel;temperature;humidity
69239;BME280;56349;51.816;-0.026;2022-09-09T00:01:03;99627.79;;;27.81;31.22
69239;BME280;56349;51.816;-0.026;2022-09-09T00:03:25;99628.22;;;28.07;31.22
69239;BME280;56349;51.816;-0.026;2022-09-09T00:05:58;99629.40;;;28.07;31.21
69239;BME280;56349;51.816;-0.026;2022-09-09T00:08:18;99631.12;;;28.07;31.19
69239;BME280;56349;51.816;-0.026;2022-09-09T00:10:40;99631.01;;;28.06;31.19
69239;BME280;56349;51.816;-0.026;2022-09-09T00:13:14;99626.38;;;28.04;31.19
69239;BME280;56349;51.816;-0.026;2022-09-09T00:15:34;99624.07;;;28.25;31.19
69239;BME280;56349;51.816;-0.026;2022-09-09T00:18:01;99624.74;;;28.02;31.19
69239;BME280;56349;51.816;-0.026;2022-09-09T00:20:26;99622.67;;;28.01;31.18
69239;BME280;56349;51.816;-0.026;2022-09-09T00:22:51;99622.86;;;28.00;31.18
69239;BME280;56349;51.816;-0.026;2022-09-09T00:25:17;99621.42;;;28.00;31.17
69239;BME280;56349;51.816;-0.026;2022-09-09T00:27:42;99618.40;;;27.98;31.17
69239;BME280;56349;51.816;-0.026;2022-09-09T00:30:13;99616.53;;;27.98;31.17
69239;BME280;56349;51.816;-0.026;2022-09-09T00:32:30;99617.47;;;27.98;31.17
69239;BME280;56349;51.816;-0.026;2022-09-09T00:34:58;99617.11;;;27.98;31.16
69239;BME280;56349;51.816;-0.026;2022-09-09T00:37:23;99614.38;;;27.97;31.14
69239;BME280;56349;51.816;-0.026;2022-09-09T00:39:46;99611.39;;;27.96;31.14
69239;BME280;56349;51.816;-0.026;2022-09-09T00:42:15;99612.50;;;27.94;31.15
69239;BME280;56349;51.816;-0.026;2022-09-09T00:44:39;99612.50;;;27.94;31.13
69239;BME280;56349;51.816;-0.026;2022-09-09T00:47:11;99611.10;;;27.94;31.14
69239;BME280;56349;51.816;-0.026;2022-09-09T00:49:39;99611.48;;;28.16;31.13
69239;BME280;56349;51.816;-0.026;2022-09-09T00:52:02;99612.45;;;27.94;31.12
69239;BME280;56349;51.816;-0.026;2022-09-09T00:54:31;99610.59;;;27.92;31.11
69239;BME280;56349;51.816;-0.026;2022-09-09T00:56:59;99612.08;;;28.15;31.10
69239;BME280;56349;51.816;-0.026;2022-09-09T00:59:21;99611.58;;;27.92;31.10
69239;BME280;56349;51.816;-0.026;2022-09-09T01:01:38;99612.88;;;27.92;31.10
69239;BME280;56349;51.816;-0.026;2022-09-09T01:04:07;99609.83;;;28.14;31.08
69239;BME280;56349;51.816;-0.026;2022-09-09T01:06:31;99606.78;;;28.13;31.07
69239;BME280;56349;51.816;-0.026;2022-09-09T01:09:04;99605.48;;;27.90;31.04
69239;BME280;56349;51.816;-0.026;2022-09-09T01:11:22;99605.33;;;27.86;31.04
69239;BME280;56349;51.816;-0.026;2022-09-09T01:13:47;99603.52;;;27.84;31.00
69239;BME280;56349;51.816;-0.026;2022-09-09T01:16:12;99602.73;;;28.00;30.98
69239;BME280;56349;51.816;-0.026;2022-09-09T01:18:40;99600.64;;;28.14;30.98
69239;BME280;56349;51.816;-0.026;2022-09-09T01:21:09;99595.73;;;27.59;31.01
69239;BME280;56349;51.816;-0.026;2022-09-09T01:23:40;99595.92;;;27.70;31.06
69239;BME280;56349;51.816;-0.026;2022-09-09T01:26:04;99598.55;;;27.55;31.14
69239;BME280;56349;51.816;-0.026;2022-09-09T01:28:25;99598.16;;;27.62;31.24
69239;BME280;56349;51.816;-0.026;2022-09-09T01:30:45;99597.14;;;27.46;31.34
69239;BME280;56349;51.816;-0.026;2022-09-09T01:33:14;99598.64;;;27.34;31.40
69239;BME280;56349;51.816;-0.026;2022-09-09T01:35:42;99597.93;;;27.49;31.48
69239;BME280;56349;51.816;-0.026;2022-09-09T01:38:04;99593.19;;;27.61;31.55
69239;BME280;56349;51.816;-0.026;2022-09-09T01:40:29;99589.39;;;27.48;31.64
69239;BME280;56349;51.816;-0.026;2022-09-09T01:42:54;99584.20;;;27.08;31.80
69239;BME280;56349;51.816;-0.026;2022-09-09T01:45:20;99586.73;;;27.14;31.97
69239;BME280;56349;51.816;-0.026;2022-09-09T01:47:45;99586.48;;;26.99;32.10
69239;BME280;56349;51.816;-0.026;2022-09-09T01:50:13;99587.99;;;26.83;32.29
69239;BME280;56349;51.816;-0.026;2022-09-09T01:52:36;99590.15;;;27.18;32.42
69239;BME280;56349;51.816;-0.026;2022-09-09T01:55:02;99588.62;;;26.82;32.58
69239;BME280;56349;51.816;-0.026;2022-09-09T01:57:30;99585.44;;;26.68;32.73
69239;BME280;56349;51.816;-0.026;2022-09-09T02:00:01;99593.03;;;26.55;32.89
69239;BME280;56349;51.816;-0.026;2022-09-09T02:02:20;99592.24;;;26.44;33.03
69239;BME280;56349;51.816;-0.026;2022-09-09T02:04:45;99593.10;;;26.58;33.12
69239;BME280;56349;51.816;-0.026;2022-09-09T02:07:19;99595.65;;;26.48;33.23
69239;BME280;56349;51.816;-0.026;2022-09-09T02:09:36;99593.71;;;26.37;33.37
69239;BME280;56349;51.816;-0.026;2022-09-09T02:12:05;99591.39;;;26.49;33.48
69239;BME280;56349;51.816;-0.026;2022-09-09T02:14:30;99589.92;;;26.41;33.59
69239;BME280;56349;51.816;-0.026;2022-09-09T02:16:56;99588.68;;;26.09;33.71
69239;BME280;56349;51.816;-0.026;2022-09-09T02:19:21;99586.80;;;25.99;33.82
69239;BME280;56349;51.816;-0.026;2022-09-09T02:21:45;99585.91;;;26.15;33.89
69239;BME280;56349;51.816;-0.026;2022-09-09T02:24:11;99583.88;;;25.87;33.98
69239;BME280;56349;51.816;-0.026;2022-09-09T02:26:34;99582.70;;;25.79;34.06
69239;BME280;56349;51.816;-0.026;2022-09-09T02:29:01;99581.08;;;25.96;34.13
69239;BME280;56349;51.816;-0.026;2022-09-09T02:31:25;99581.12;;;25.69;34.19
69239;BME280;56349;51.816;-0.026;2022-09-09T02:33:53;99581.40;;;25.87;34.24
69239;BME280;56349;51.816;-0.026;2022-09-09T02:36:17;99584.29;;;26.07;34.34
69239;BME280;56349;51.816;-0.026;2022-09-09T02:38:46;99586.86;;;26.00;34.41
69239;BME280;56349;51.816;-0.026;2022-09-09T02:41:07;99588.35;;;25.65;34.52
69239;BME280;56349;51.816;-0.026;2022-09-09T02:43:34;99591.81;;;25.58;34.61
69239;BME280;56349;51.816;-0.026;2022-09-09T02:46:07;99591.52;;;25.78;34.69
69239;BME280;56349;51.816;-0.026;2022-09-09T02:48:30;99591.16;;;25.46;34.77
69239;BME280;56349;51.816;-0.026;2022-09-09T02:51:00;99588.65;;;25.42;34.83
69239;BME280;56349;51.816;-0.026;2022-09-09T02:53:18;99591.26;;;25.64;34.90
69239;BME280;56349;51.816;-0.026;2022-09-09T02:55:47;99591.05;;;25.32;34.97
69239;BME280;56349;51.816;-0.026;2022-09-09T02:58:10;99590.47;;;25.55;35.00
69239;BME280;56349;51.816;-0.026;2022-09-09T03:00:34;99593.39;;;25.24;35.07
69239;BME280;56349;51.816;-0.026;2022-09-09T03:02:59;99593.52;;;25.47;35.12
69239;BME280;56349;51.816;-0.026;2022-09-09T03:05:24;99593.64;;;25.43;35.19
69239;BME280;56349;51.816;-0.026;2022-09-09T03:07:49;99595.45;;;25.40;35.24
69239;BME280;56349;51.816;-0.026;2022-09-09T03:10:16;99595.80;;;25.36;35.29
69239;BME280;56349;51.816;-0.026;2022-09-09T03:12:41;99596.29;;;25.34;35.32
69239;BME280;56349;51.816;-0.026;2022-09-09T03:15:08;99598.28;;;25.30;35.39
69239;BME280;56349;51.816;-0.026;2022-09-09T03:17:33;99603.35;;;25.28;35.42
69239;BME280;56349;51.816;-0.026;2022-09-09T03:19:59;99604.42;;;25.25;35.46
69239;BME280;56349;51.816;-0.026;2022-09-09T03:22:24;99601.75;;;25.24;35.47
69239;BME280;56349;51.816;-0.026;2022-09-09T03:24:49;99601.00;;;25.23;35.48
69239;BME280;56349;51.816;-0.026;2022-09-09T03:27:15;99603.11;;;25.20;35.53
69239;BME280;56349;51.816;-0.026;2022-09-09T03:29:41;99605.79;;;25.59;35.60
69239;BME280;56349;51.816;-0.026;2022-09-09T03:32:07;99606.98;;;25.12;35.67
69239;BME280;56349;51.816;-0.026;2022-09-09T03:34:33;99607.22;;;25.11;35.73
69239;BME280;56349;51.816;-0.026;2022-09-09T03:37:00;99610.75;;;25.12;35.79
69239;BME280;56349;51.816;-0.026;2022-09-09T03:39:26;99612.17;;;25.15;35.85
69239;BME280;56349;51.816;-0.026;2022-09-09T03:41:52;99615.42;;;25.43;35.86
69239;BME280;56349;51.816;-0.026;2022-09-09T03:44:18;99618.08;;;25.31;35.83
69239;BME280;56349;51.816;-0.026;2022-09-09T03:46:44;99620.55;;;25.17;35.76
69239;BME280;56349;51.816;-0.026;2022-09-09T03:49:10;99624.28;;;25.29;35.66
69239;BME280;56349;51.816;-0.026;2022-09-09T03:51:36;99626.68;;;25.70;35.52
69239;BME280;56349;51.816;-0.026;2022-09-09T03:54:02;99631.68;;;25.84;35.35
69239;BME280;56349;51.816;-0.026;2022-09-09T03:56:27;99631.86;;;25.95;35.15
69239;BME280;56349;51.816;-0.026;2022-09-09T03:58:53;99634.72;;;25.77;35.02
69239;BME280;56349;51.816;-0.026;2022-09-09T04:01:19;99634.35;;;25.83;34.89
69239;BME280;56349;51.816;-0.026;2022-09-09T04:03:45;99636.60;;;25.64;34.80
69239;BME280;56349;51.816;-0.026;2022-09-09T04:06:11;99636.90;;;25.64;34.73
69239;BME280;56349;51.816;-0.026;2022-09-09T04:08:36;99637.32;;;25.86;34.68
69239;BME280;56349;51.816;-0.026;2022-09-09T04:11:01;99637.69;;;25.83;34.66
69239;BME280;56349;51.816;-0.026;2022-09-09T04:13:27;99637.81;;;25.78;34.66
69239;BME280;56349;51.816;-0.026;2022-09-09T04:15:53;99636.66;;;25.71;34.68
69239;BME280;56349;51.816;-0.026;2022-09-09T04:18:17;99634.41;;;25.92;34.70
69239;BME280;56349;51.816;-0.026;2022-09-09T04:20:46;99635.54;;;25.60;34.74
69239;BME280;56349;51.816;-0.026;2022-09-09T04:23:09;99637.52;;;25.56;34.76
69239;BME280;56349;51.816;-0.026;2022-09-09T04:25:35;99642.48;;;25.51;34.79
69239;BME280;56349;51.816;-0.026;2022-09-09T04:28:01;99637.23;;;25.70;34.86
69239;BME280;56349;51.816;-0.026;2022-09-09T04:30:26;99637.72;;;25.36;34.92
69239;BME280;56349;51.816;-0.026;2022-09-09T04:32:52;99637.53;;;25.57;34.97
69239;BME280;56349;51.816;-0.026;2022-09-09T04:35:17;99637.09;;;25.51;35.02
69239;BME280;56349;51.816;-0.026;2022-09-09T04:37:43;99634.20;;;25.46;35.07
69239;BME280;56349;51.816;-0.026;2022-09-09T04:40:10;99634.71;;;25.40;35.14
69239;BME280;56349;51.816;-0.026;2022-09-09T04:42:35;99642.51;;;25.35;35.19
69239;BME280;56349;51.816;-0.026;2022-09-09T04:45:00;99649.13;;;25.29;35.27
69239;BME280;56349;51.816;-0.026;2022-09-09T04:47:26;99649.19;;;25.25;35.31
69239;BME280;56349;51.816;-0.026;2022-09-09T04:49:52;99653.19;;;25.20;35.36
69239;BME280;56349;51.816;-0.026;2022-09-09T04:52:18;99653.28;;;24.89;35.41
69239;BME280;56349;51.816;-0.026;2022-09-09T04:54:43;99654.77;;;25.13;35.44
69239;BME280;56349;51.816;-0.026;2022-09-09T04:57:10;99659.33;;;25.09;35.48
69239;BME280;56349;51.816;-0.026;2022-09-09T04:59:34;99659.43;;;25.03;35.54
69239;BME280;56349;51.816;-0.026;2022-09-09T05:02:00;99660.83;;;24.99;35.59
69239;BME280;56349;51.816;-0.026;2022-09-09T05:04:26;99662.03;;;24.98;35.61
69239;BME280;56349;51.816;-0.026;2022-09-09T05:06:52;99661.11;;;24.93;35.66
69239;BME280;56349;51.816;-0.026;2022-09-09T05:09:18;99659.76;;;24.90;35.69
69239;BME280;56349;51.816;-0.026;2022-09-09T05:11:44;99657.97;;;24.86;35.73
69239;BME280;56349;51.816;-0.026;2022-09-09T05:14:10;99660.25;;;24.85;35.75
69239;BME280;56349;51.816;-0.026;2022-09-09T05:16:37;99667.56;;;25.27;35.78
69239;BME280;56349;51.816;-0.026;2022-09-09T05:19:03;99668.62;;;25.24;35.82
69239;BME280;56349;51.816;-0.026;2022-09-09T05:21:29;99670.35;;;25.22;35.85
69239;BME280;56349;51.816;-0.026;2022-09-09T05:23:54;99672.49;;;24.98;35.88
69239;BME280;56349;51.816;-0.026;2022-09-09T05:26:20;99674.32;;;25.19;35.89
69239;BME280;56349;51.816;-0.026;2022-09-09T05:28:45;99674.63;;;24.95;35.92
69239;BME280;56349;51.816;-0.026;2022-09-09T05:31:11;99678.22;;;24.69;35.95
69239;BME280;56349;51.816;-0.026;2022-09-09T05:33:36;99679.19;;;25.13;35.96
69239;BME280;56349;51.816;-0.026;2022-09-09T05:36:04;99680.29;;;24.69;35.95
69239;BME280;56349;51.816;-0.026;2022-09-09T05:38:27;99683.49;;;24.66;35.99
69239;BME280;56349;51.816;-0.026;2022-09-09T05:40:53;99685.65;;;25.08;36.02
69239;BME280;56349;51.816;-0.026;2022-09-09T05:43:18;99687.73;;;25.08;36.04
69239;BME280;56349;51.816;-0.026;2022-09-09T05:45:43;99691.11;;;24.82;36.05
69239;BME280;56349;51.816;-0.026;2022-09-09T05:48:09;99693.54;;;25.01;36.09
69239;BME280;56349;51.816;-0.026;2022-09-09T05:50:35;99692.24;;;24.77;36.11
69239;BME280;56349;51.816;-0.026;2022-09-09T05:53:01;99700.83;;;24.54;36.13
69239;BME280;56349;51.816;-0.026;2022-09-09T05:55:26;99705.04;;;24.53;36.13
69239;BME280;56349;51.816;-0.026;2022-09-09T05:57:52;99713.75;;;24.96;36.16
69239;BME280;56349;51.816;-0.026;2022-09-09T06:00:18;99714.99;;;24.49;36.19
69239;BME280;56349;51.816;-0.026;2022-09-09T06:02:50;99716.85;;;24.71;36.19
69239;BME280;56349;51.816;-0.026;2022-09-09T06:05:10;99717.63;;;24.47;36.21
69239;BME280;56349;51.816;-0.026;2022-09-09T06:07:36;99720.62;;;24.66;36.23
69239;BME280;56349;51.816;-0.026;2022-09-09T06:10:03;99722.13;;;24.65;36.25
69239;BME280;56349;51.816;-0.026;2022-09-09T06:12:28;99722.29;;;24.65;36.27
69239;BME280;56349;51.816;-0.026;2022-09-09T06:14:54;99724.64;;;24.86;36.28
69239;BME280;56349;51.816;-0.026;2022-09-09T06:17:20;99724.10;;;24.39;36.45
69239;BME280;56349;51.816;-0.026;2022-09-09T06:19:46;99728.83;;;24.59;36.51
69239;BME280;56349;51.816;-0.026;2022-09-09T06:22:12;99733.09;;;24.59;36.56
69239;BME280;56349;51.816;-0.026;2022-09-09T06:24:38;99739.30;;;24.61;36.76
69239;BME280;56349;51.816;-0.026;2022-09-09T06:27:04;99746.37;;;24.59;36.99
69239;BME280;56349;51.816;-0.026;2022-09-09T06:29:29;99748.82;;;24.59;37.23
69239;BME280;56349;51.816;-0.026;2022-09-09T06:31:56;99750.86;;;24.63;37.47
69239;BME280;56349;51.816;-0.026;2022-09-09T06:34:20;99754.54;;;24.45;37.55
69239;BME280;56349;51.816;-0.026;2022-09-09T06:36:46;99753.04;;;24.91;37.63
69239;BME280;56349;51.816;-0.026;2022-09-09T06:39:12;99757.34;;;24.47;37.59
69239;BME280;56349;51.816;-0.026;2022-09-09T06:41:38;99760.95;;;24.46;37.72
69239;BME280;56349;51.816;-0.026;2022-09-09T06:44:03;99764.52;;;24.68;37.75
69239;BME280;56349;51.816;-0.026;2022-09-09T06:46:30;99767.24;;;24.71;37.92
69239;BME280;56349;51.816;-0.026;2022-09-09T06:48:56;99771.19;;;24.95;38.02
69239;BME280;56349;51.816;-0.026;2022-09-09T06:51:23;99766.25;;;25.00;38.01
69239;BME280;56349;51.816;-0.026;2022-09-09T06:53:49;99768.99;;;24.85;38.02
69239;BME280;56349;51.816;-0.026;2022-09-09T06:56:20;99767.74;;;24.73;37.93
69239;BME280;56349;51.816;-0.026;2022-09-09T06:58:39;99767.43;;;24.88;37.92
69239;BME280;56349;51.816;-0.026;2022-09-09T07:01:05;99768.60;;;25.04;37.82
69239;BME280;56349;51.816;-0.026;2022-09-09T07:03:29;99775.33;;;24.96;37.61
69239;BME280;56349;51.816;-0.026;2022-09-09T07:05:55;99778.47;;;25.15;37.45
69239;BME280;56349;51.816;-0.026;2022-09-09T07:08:21;99785.01;;;25.34;37.29
69239;BME280;56349;51.816;-0.026;2022-09-09T07:10:46;99785.63;;;25.58;37.07
69239;BME280;56349;51.816;-0.026;2022-09-09T07:13:12;99786.15;;;25.79;36.86
69239;BME280;56349;51.816;-0.026;2022-09-09T07:15:37;99787.90;;;25.74;36.67
69239;BME280;56349;51.816;-0.026;2022-09-09T07:18:02;99790.04;;;25.93;36.45
69239;BME280;56349;51.816;-0.026;2022-09-09T07:20:27;99793.78;;;25.64;36.22
69239;BME280;56349;51.816;-0.026;2022-09-09T07:22:55;99793.61;;;26.07;36.01
69239;BME280;56349;51.816;-0.026;2022-09-09T07:25:18;99799.43;;;26.50;35.80
69239;BME280;56349;51.816;-0.026;2022-09-09T07:27:45;99801.09;;;26.67;35.63
69239;BME280;56349;51.816;-0.026;2022-09-09T07:30:11;99805.72;;;26.34;35.46
69239;BME280;56349;51.816;-0.026;2022-09-09T07:32:36;99808.05;;;26.51;35.29
69239;BME280;56349;51.816;-0.026;2022-09-09T07:35:02;99809.74;;;26.62;35.16
69239;BME280;56349;51.816;-0.026;2022-09-09T07:37:27;99810.56;;;26.71;35.08
69239;BME280;56349;51.816;-0.026;2022-09-09T07:39:53;99814.90;;;26.86;34.91
69239;BME280;56349;51.816;-0.026;2022-09-09T07:42:18;99819.09;;;26.99;34.77
69239;BME280;56349;51.816;-0.026;2022-09-09T07:44:43;99819.61;;;27.08;34.61
69239;BME280;56349;51.816;-0.026;2022-09-09T07:47:10;99820.75;;;27.01;34.44
69239;BME280;56349;51.816;-0.026;2022-09-09T07:49:35;99823.12;;;27.09;34.31
69239;BME280;56349;51.816;-0.026;2022-09-09T07:52:00;99824.90;;;27.19;34.15
69239;BME280;56349;51.816;-0.026;2022-09-09T07:54:26;99832.47;;;27.30;34.27
69239;BME280;56349;51.816;-0.026;2022-09-09T07:56:53;99835.46;;;27.12;34.34
69239;BME280;56349;51.816;-0.026;2022-09-09T07:59:18;99837.68;;;27.17;34.20
69239;BME280;56349;51.816;-0.026;2022-09-09T08:01:45;99838.01;;;27.22;34.17
69239;BME280;56349;51.816;-0.026;2022-09-09T08:04:11;99841.88;;;27.26;34.06
69239;BME280;56349;51.816;-0.026;2022-09-09T08:06:37;99846.22;;;27.27;33.96
69239;BME280;56349;51.816;-0.026;2022-09-09T08:09:02;99849.01;;;27.32;33.90
69239;BME280;56349;51.816;-0.026;2022-09-09T08:11:28;99848.89;;;27.39;33.80
69239;BME280;56349;51.816;-0.026;2022-09-09T08:13:54;99853.96;;;27.43;34.00
69239;BME280;56349;51.816;-0.026;2022-09-09T08:16:21;99856.87;;;27.47;34.07
69239;BME280;56349;51.816;-0.026;2022-09-09T08:18:44;99861.71;;;27.50;34.09
69239;BME280;56349;51.816;-0.026;2022-09-09T08:21:11;99865.01;;;27.55;34.06
69239;BME280;56349;51.816;-0.026;2022-09-09T08:23:36;99870.68;;;27.59;33.83
69239;BME280;56349;51.816;-0.026;2022-09-09T08:26:06;99872.11;;;27.62;33.64
69239;BME280;56349;51.816;-0.026;2022-09-09T08:28:26;99873.56;;;27.40;33.48
69239;BME280;56349;51.816;-0.026;2022-09-09T08:30:52;99876.45;;;27.67;33.35
69239;BME280;56349;51.816;-0.026;2022-09-09T08:33:18;99880.37;;;27.49;33.23
69239;BME280;56349;51.816;-0.026;2022-09-09T08:35:50;99881.11;;;27.80;33.05
69239;BME280;56349;51.816;-0.026;2022-09-09T08:38:10;99887.55;;;27.86;32.89
69239;BME280;56349;51.816;-0.026;2022-09-09T08:40:38;99885.73;;;27.47;32.76
69239;BME280;56349;51.816;-0.026;2022-09-09T08:43:02;99887.84;;;27.95;32.62
69239;BME280;56349;51.816;-0.026;2022-09-09T08:45:33;99886.00;;;27.51;32.33
69239;BME280;56349;51.816;-0.026;2022-09-09T08:48:01;99889.99;;;27.90;32.26
69239;BME280;56349;51.816;-0.026;2022-09-09T08:50:22;99888.86;;;27.57;32.19
69239;BME280;56349;51.816;-0.026;2022-09-09T08:52:49;99890.37;;;27.74;32.13
69239;BME280;56349;51.816;-0.026;2022-09-09T08:55:20;99891.89;;;27.63;32.10
69239;BME280;56349;51.816;-0.026;2022-09-09T08:57:34;99899.01;;;27.54;32.17
69239;BME280;56349;51.816;-0.026;2022-09-09T09:00:01;99906.36;;;27.49;32.19
69239;BME280;56349;51.816;-0.026;2022-09-09T09:02:31;99911.28;;;27.44;32.14
69239;BME280;56349;51.816;-0.026;2022-09-09T09:04:59;99912.18;;;27.38;32.08
69239;BME280;56349;51.816;-0.026;2022-09-09T09:07:24;99915.63;;;27.34;32.02
69239;BME280;56349;51.816;-0.026;2022-09-09T09:09:49;99921.33;;;27.29;32.01
69239;BME280;56349;51.816;-0.026;2022-09-09T09:12:16;99922.54;;;27.25;32.01
69239;BME280;56349;51.816;-0.026;2022-09-09T09:14:36;99923.57;;;27.20;32.08
69239;BME280;56349;51.816;-0.026;2022-09-09T09:17:01;99923.73;;;27.19;32.14
69239;BME280;56349;51.816;-0.026;2022-09-09T09:19:26;99925.03;;;27.18;32.19
69239;BME280;56349;51.816;-0.026;2022-09-09T09:21:54;99929.69;;;27.23;32.18
69239;BME280;56349;51.816;-0.026;2022-09-09T09:24:20;99933.90;;;27.29;32.13
69239;BME280;56349;51.816;-0.026;2022-09-09T09:26:43;99940.87;;;27.38;32.00
69239;BME280;56349;51.816;-0.026;2022-09-09T09:29:11;99940.40;;;27.45;31.93
69239;BME280;56349;51.816;-0.026;2022-09-09T09:31:32;99945.99;;;27.12;31.87
69239;BME280;56349;51.816;-0.026;2022-09-09T09:33:58;99948.70;;;27.44;31.55
69239;BME280;56349;51.816;-0.026;2022-09-09T09:36:33;99949.79;;;27.78;31.48
69239;BME280;56349;51.816;-0.026;2022-09-09T09:38:56;99952.74;;;27.57;31.46
69239;BME280;56349;51.816;-0.026;2022-09-09T09:41:15;99955.02;;;27.56;31.62
69239;BME280;56349;51.816;-0.026;2022-09-09T09:43:41;99959.39;;;27.57;31.66
69239;BME280;56349;51.816;-0.026;2022-09-09T09:48:31;99965.32;;;27.78;31.74
69239;BME280;56349;51.816;-0.026;2022-09-09T09:51:00;99965.16;;;28.01;31.76
69239;BME280;56349;51.816;-0.026;2022-09-09T09:53:25;99971.84;;;28.04;31.74
69239;BME280;56349;51.816;-0.026;2022-09-09T09:55:53;99972.90;;;27.83;31.73
69239;BME280;56349;51.816;-0.026;2022-09-09T09:58:15;99975.76;;;28.06;31.70
69239;BME280;56349;51.816;-0.026;2022-09-09T10:00:47;99979.32;;;27.86;31.68
69239;BME280;56349;51.816;-0.026;2022-09-09T10:05:30;99984.20;;;27.68;31.60
69239;BME280;56349;51.816;-0.026;2022-09-09T10:08:01;99986.54;;;27.93;31.54
69239;BME280;56349;51.816;-0.026;2022-09-09T10:10:25;99982.02;;;27.95;31.50
69239;BME280;56349;51.816;-0.026;2022-09-09T10:12:55;99988.45;;;27.74;31.46
69239;BME280;56349;51.816;-0.026;2022-09-09T10:15:24;99986.96;;;27.96;31.46
69239;BME280;56349;51.816;-0.026;2022-09-09T10:17:45;99988.94;;;28.00;31.43
69239;BME280;56349;51.816;-0.026;2022-09-09T10:20:15;99988.31;;;28.10;31.32
69239;BME280;56349;51.816;-0.026;2022-09-09T10:22:33;99992.02;;;27.88;31.28
69239;BME280;56349;51.816;-0.026;2022-09-09T10:27:25;99992.57;;;28.17;31.29
69239;BME280;56349;51.816;-0.026;2022-09-09T10:29:59;99993.35;;;27.94;31.24
69239;BME280;56349;51.816;-0.026;2022-09-09T10:32:27;99994.44;;;28.36;31.23
69239;BME280;56349;51.816;-0.026;2022-09-09T10:34:50;99998.84;;;27.89;31.23
69239;BME280;56349;51.816;-0.026;2022-09-09T10:37:06;99999.28;;;28.10;31.20
69239;BME280;56349;51.816;-0.026;2022-09-09T10:39:35;100004.96;;;27.86;31.17
69239;BME280;56349;51.816;-0.026;2022-09-09T10:42:00;100002.39;;;28.07;31.15
69239;BME280;56349;51.816;-0.026;2022-09-09T10:44:30;100000.49;;;27.55;31.14
69239;BME280;56349;51.816;-0.026;2022-09-09T10:46:57;99998.62;;;27.79;31.15
69239;BME280;56349;51.816;-0.026;2022-09-09T10:49:20;100000.11;;;27.79;31.12
69239;BME280;56349;51.816;-0.026;2022-09-09T10:51:40;100001.35;;;28.21;31.11
69239;BME280;56349;51.816;-0.026;2022-09-09T10:54:19;100004.15;;;27.77;31.09
69239;BME280;56349;51.816;-0.026;2022-09-09T10:56:28;100004.67;;;27.77;31.06
69239;BME280;56349;51.816;-0.026;2022-09-09T10:58:56;100008.79;;;27.78;31.03
69239;BME280;56349;51.816;-0.026;2022-09-09T11:01:22;100012.90;;;27.78;31.00
69239;BME280;56349;51.816;-0.026;2022-09-09T11:03:48;100009.18;;;28.01;30.99
69239;BME280;56349;51.816;-0.026;2022-09-09T11:06:14;100005.76;;;27.99;31.04
69239;BME280;56349;51.816;-0.026;2022-09-09T11:08:38;100003.54;;;28.21;31.06
69239;BME280;56349;51.816;-0.026;2022-09-09T11:11:03;100006.01;;;28.00;31.11
69239;BME280;56349;51.816;-0.026;2022-09-09T11:13:34;100005.58;;;27.78;31.16
69239;BME280;56349;51.816;-0.026;2022-09-09T11:16:00;100007.42;;;27.96;31.24
69239;BME280;56349;51.816;-0.026;2022-09-09T11:18:20;100011.38;;;27.69;31.29
69239;BME280;56349;51.816;-0.026;2022-09-09T11:20:45;100008.76;;;27.62;31.29
69239;BME280;56349;51.816;-0.026;2022-09-09T11:23:14;100010.32;;;27.76;31.37
69239;BME280;56349;51.816;-0.026;2022-09-09T11:25:38;100011.76;;;27.88;31.41
69239;BME280;56349;51.816;-0.026;2022-09-09T11:28:14;100016.34;;;27.74;31.54
69239;BME280;56349;51.816;-0.026;2022-09-09T11:30:32;100012.73;;;27.41;31.66
69239;BME280;56349;51.816;-0.026;2022-09-09T11:33:04;100014.65;;;27.54;31.77
69239;BME280;56349;51.816;-0.026;2022-09-09T11:35:30;100014.29;;;27.48;31.91
69239;BME280;56349;51.816;-0.026;2022-09-09T11:38:00;100015.86;;;27.73;32.01
69239;BME280;56349;51.816;-0.026;2022-09-09T11:40:17;100017.89;;;27.46;32.07
69239;BME280;56349;51.816;-0.026;2022-09-09T11:42:35;100020.52;;;27.48;32.10
69239;BME280;56349;51.816;-0.026;2022-09-09T11:45:09;100020.30;;;27.50;32.12
69239;BME280;56349;51.816;-0.026;2022-09-09T11:47:28;100018.71;;;27.52;32.14
69239;BME280;56349;51.816;-0.026;2022-09-09T11:49:52;100019.24;;;27.56;32.13
69239;BME280;56349;51.816;-0.026;2022-09-09T11:52:23;100023.06;;;27.60;32.10
69239;BME280;56349;51.816;-0.026;2022-09-09T11:54:47;100021.67;;;27.65;32.08
69239;BME280;56349;51.816;-0.026;2022-09-09T11:57:16;100023.92;;;27.68;32.06
69239;BME280;56349;51.816;-0.026;2022-09-09T11:59:33;100025.20;;;27.72;32.07
69239;BME280;56349;51.816;-0.026;2022-09-09T12:02:01;100027.94;;;27.55;32.05
69239;BME280;56349;51.816;-0.026;2022-09-09T12:04:30;100028.13;;;27.63;32.08
69239;BME280;56349;51.816;-0.026;2022-09-09T12:06:53;100029.67;;;27.91;32.14
69239;BME280;56349;51.816;-0.026;2022-09-09T12:09:22;100031.76;;;27.98;32.18
69239;BME280;56349;51.816;-0.026;2022-09-09T12:11:42;100030.61;;;27.83;32.20
69239;BME280;56349;51.816;-0.026;2022-09-09T12:16:35;100032.90;;;27.76;32.17
69239;BME280;56349;51.816;-0.026;2022-09-09T12:19:05;100032.64;;;27.85;32.11
69239;BME280;56349;51.816;-0.026;2022-09-09T12:21:32;100030.69;;;27.95;32.04
69239;BME280;56349;51.816;-0.026;2022-09-09T12:23:53;100027.96;;;28.26;31.94
69239;BME280;56349;51.816;-0.026;2022-09-09T12:26:25;100027.67;;;28.11;31.86
69239;BME280;56349;51.816;-0.026;2022-09-09T12:28:50;100019.74;;;28.16;31.79
69239;BME280;56349;51.816;-0.026;2022-09-09T12:31:11;100022.20;;;28.44;31.70
69239;BME280;56349;51.816;-0.026;2022-09-09T12:33:34;100018.81;;;28.26;31.64
69239;BME280;56349;51.816;-0.026;2022-09-09T12:35:59;100021.34;;;28.30;31.59
69239;BME280;56349;51.816;-0.026;2022-09-09T12:38:29;100025.63;;;28.33;31.53
69239;BME280;56349;51.816;-0.026;2022-09-09T12:40:55;100027.75;;;28.36;31.49
69239;BME280;56349;51.816;-0.026;2022-09-09T12:43:18;100028.55;;;28.39;31.43
69239;BME280;56349;51.816;-0.026;2022-09-09T12:45:41;100033.24;;;28.41;31.38
69239;BME280;56349;51.816;-0.026;2022-09-09T12:48:08;100030.64;;;28.16;31.33